Time;durP1;ratioP1;P1;durP2;ratioP2;P2;SDS_P1;SDS_P2;PMS_P1;PMS_P2;Temp;Humidity;BMP_temperature;BMP_pressure;BME280_temperature;BME280_humidity;BME280_pressure;Samples;Min_cycle;Max_cycle;Signal;HPM_P1;HPM_P2
2022/07/04 00:00:30;;;;;;;0.10;0.10;;;;;;;26.93;58.35;100086.41;4994669;28;20492;-77
2022/07/04 00:02:55;;;;;;;0.10;0.10;;;;;;;27.12;58.10;100099.44;4995913;28;20030;-75
2022/07/04 00:05:21;;;;;;;0.10;0.10;;;;;;;27.09;57.53;100088.16;4994285;28;20504;-76
2022/07/04 00:07:49;;;;;;;0.10;0.10;;;;;;;27.13;53.17;100100.22;4994713;28;20374;-77
2022/07/04 00:10:22;;;;;;;0.10;0.10;;;;;;;27.19;53.35;100097.50;4994750;28;20030;-75
2022/07/04 00:12:48;;;;;;;0.10;0.10;;;;;;;27.24;53.06;100099.72;4995461;28;20489;-77
2022/07/04 00:15:14;;;;;;;0.10;0.10;;;;;;;27.26;51.60;100091.44;4994071;28;20038;-77
2022/07/04 00:17:40;;;;;;;0.10;0.10;;;;;;;27.21;51.48;100087.16;4994496;28;20093;-76
2022/07/04 00:20:08;;;;;;;0.10;0.10;;;;;;;27.24;50.31;100089.09;4993771;28;20137;-77
2022/07/04 00:22:33;;;;;;;0.10;0.10;;;;;;;27.31;49.29;100093.66;4995857;28;20377;-77
2022/07/04 00:24:59;;;;;;;0.10;0.10;;;;;;;27.29;48.08;100085.56;4994125;28;20461;-77
2022/07/04 00:27:24;;;;;;;0.10;0.10;;;;;;;27.28;47.64;100092.56;4994219;28;20022;-78
2022/07/04 00:29:50;;;;;;;0.10;0.10;;;;;;;27.29;47.53;100087.66;4993973;28;20030;-77
2022/07/04 00:32:16;;;;;;;0.20;0.20;;;;;;;27.24;46.77;100094.78;4993251;28;20018;-76
2022/07/04 00:34:42;;;;;;;0.10;0.10;;;;;;;27.28;46.48;100089.72;4993985;28;20038;-77
2022/07/04 00:37:08;;;;;;;0.10;0.10;;;;;;;27.26;45.45;100082.88;4993406;28;20023;-77
2022/07/04 00:39:33;;;;;;;0.10;0.10;;;;;;;27.24;45.59;100083.38;4993675;28;20034;-77
2022/07/04 00:41:59;;;;;;;0.10;0.10;;;;;;;27.15;45.63;100089.88;4993583;28;20026;-77
2022/07/04 00:44:25;;;;;;;0.10;0.10;;;;;;;27.12;46.06;100085.16;4993974;28;20030;-77
2022/07/04 00:46:50;;;;;;;0.10;0.10;;;;;;;27.12;46.66;100088.00;4994199;28;20386;-77
2022/07/04 00:49:17;;;;;;;0.10;0.10;;;;;;;27.19;47.00;100086.09;4994840;28;20085;-76
2022/07/04 00:51:44;;;;;;;0.10;0.10;;;;;;;27.17;46.95;100094.34;4993810;28;20026;-77
2022/07/04 00:54:12;;;;;;;0.10;0.10;;;;;;;27.15;47.15;100098.44;4977520;28;20061;-78
2022/07/04 00:56:40;;;;;;;0.10;0.10;;;;;;;27.19;47.38;100083.22;4993507;28;20026;-77
2022/07/04 00:59:06;;;;;;;0.10;0.10;;;;;;;27.25;47.11;100081.31;4993930;28;20549;-77
2022/07/04 01:01:32;;;;;;;0.10;0.10;;;;;;;27.14;46.95;100079.75;4994186;28;20121;-76
2022/07/04 01:03:59;;;;;;;0.10;0.10;;;;;;;27.09;47.31;100088.94;4993471;28;20056;-76
2022/07/04 01:06:24;;;;;;;0.10;0.10;;;;;;;27.19;47.00;100089.72;4993456;28;20034;-75
2022/07/04 01:08:50;;;;;;;0.10;0.10;;;;;;;27.24;46.98;100088.28;4994277;28;20483;-77
2022/07/04 01:11:16;;;;;;;0.10;0.10;;;;;;;27.18;47.67;100093.06;4993260;28;20034;-76
2022/07/04 01:13:43;;;;;;;0.10;0.10;;;;;;;27.09;47.73;100088.16;4993256;28;20096;-77
2022/07/04 01:16:10;;;;;;;0.10;0.10;;;;;;;27.13;47.94;100092.44;4994491;28;20469;-77
2022/07/04 01:18:36;;;;;;;0.10;0.10;;;;;;;27.09;48.23;100091.03;4994430;28;20389;-76
2022/07/04 01:21:02;;;;;;;0.10;0.10;;;;;;;27.08;48.58;100092.28;4976712;28;20402;-76
2022/07/04 01:23:28;;;;;;;0.10;0.10;;;;;;;27.18;47.75;100090.22;4993128;28;20153;-78
2022/07/04 01:25:54;;;;;;;0.10;0.10;;;;;;;27.09;48.43;100093.88;4993615;28;20034;-78
2022/07/04 01:28:23;;;;;;;0.10;0.10;;;;;;;27.08;48.68;100087.38;4992861;28;20038;-77
2022/07/04 01:30:49;;;;;;;0.10;0.10;;;;;;;27.14;48.63;100091.16;4992867;28;20034;-77
2022/07/04 01:33:17;;;;;;;0.10;0.10;;;;;;;27.18;48.85;100095.94;4993292;28;20452;-77
2022/07/04 01:35:49;;;;;;;0.10;0.10;;;;;;;27.11;49.04;100097.84;4994829;28;20484;-76
2022/07/04 01:38:15;;;;;;;0.10;0.10;;;;;;;27.05;49.14;100104.63;4993838;28;20027;-77
2022/07/04 01:40:40;;;;;;;0.10;0.10;;;;;;;27.06;48.97;100092.75;4993177;28;20092;-77
2022/07/04 01:43:06;;;;;;;0.10;0.10;;;;;;;27.05;49.52;100105.41;4992947;28;20022;-77
2022/07/04 01:45:37;;;;;;;0.20;0.20;;;;;;;27.00;49.35;100106.06;4995716;28;20034;-77
2022/07/04 01:48:07;;;;;;;0.10;0.10;;;;;;;27.00;49.66;100108.91;4996808;28;20031;-77
2022/07/04 01:50:34;;;;;;;0.10;0.10;;;;;;;26.98;49.79;100107.81;4996988;28;20173;-78
2022/07/04 01:53:00;;;;;;;0.10;0.10;;;;;;;26.96;49.96;100108.31;4996705;28;20034;-78
2022/07/04 01:55:29;;;;;;;0.10;0.10;;;;;;;27.00;49.48;100108.91;4996960;28;20033;-76
2022/07/04 01:57:55;;;;;;;0.10;0.10;;;;;;;27.00;49.64;100108.91;4996577;28;20065;-77
2022/07/04 02:03:05;;;;;;;0.10;0.10;;;;;;;26.98;49.28;100094.34;4998360;28;20389;-77
2022/07/04 02:05:31;;;;;;;0.10;0.10;;;;;;;27.03;49.59;100101.47;4996924;28;20030;-77
2022/07/04 02:07:58;;;;;;;0.10;0.10;;;;;;;26.76;50.18;100100.22;4996703;28;20062;-76
2022/07/04 02:10:24;;;;;;;0.10;0.10;;;;;;;26.67;50.76;100094.53;4997133;28;20037;-77
2022/07/04 02:13:01;;;;;;;0.10;0.10;;;;;;;26.51;50.85;100094.84;4996923;28;20030;-78
2022/07/04 02:15:40;;;;;;;0.10;0.10;;;;;;;26.50;51.46;100110.38;4997172;28;20057;-75
2022/07/04 02:18:08;;;;;;;0.20;0.20;;;;;;;26.50;51.30;100104.69;4996440;28;20450;-78
2022/07/04 02:20:35;;;;;;;0.10;0.10;;;;;;;26.42;52.02;100111.94;5011295;28;20054;-76
2022/07/04 02:23:02;;;;;;;0.10;0.10;;;;;;;26.33;52.05;100115.56;5000339;28;20128;-78
2022/07/04 02:25:27;;;;;;;0.10;0.10;;;;;;;26.29;52.54;100117.78;4999794;28;20037;-77
2022/07/04 02:27:55;;;;;;;0.10;0.10;;;;;;;26.31;52.89;100116.06;4999986;28;20037;-76
2022/07/04 02:30:21;;;;;;;0.10;0.10;;;;;;;26.42;52.34;100124.19;4999752;28;20472;-78
2022/07/04 02:32:46;;;;;;;0.10;0.10;;;;;;;26.43;52.29;100117.19;4999481;28;20045;-78
2022/07/04 02:35:13;;;;;;;0.10;0.10;;;;;;;26.43;52.36;100117.19;4999616;28;20042;-78
2022/07/04 02:37:39;;;;;;;0.13;0.13;;;;;;;26.34;52.63;100125.72;4999147;28;20132;-76
2022/07/04 02:40:05;;;;;;;0.15;0.15;;;;;;;26.26;52.90;100125.22;4999420;28;20092;-77
2022/07/04 02:42:32;;;;;;;0.20;0.20;;;;;;;26.25;53.41;100122.81;4999127;28;20025;-76
2022/07/04 02:44:57;;;;;;;0.10;0.10;;;;;;;26.27;52.79;100118.25;4999929;28;20122;-75
2022/07/04 02:47:23;;;;;;;0.10;0.10;;;;;;;26.27;53.35;100126.81;4999329;28;20164;-77
2022/07/04 02:49:49;;;;;;;0.10;0.10;;;;;;;26.26;53.28;100110.97;4999869;28;20480;-76
2022/07/04 02:52:15;;;;;;;0.10;0.10;;;;;;;26.41;52.74;100116.81;5016397;28;20140;-75
2022/07/04 02:54:41;;;;;;;0.10;0.10;;;;;;;26.33;53.18;100112.72;4999162;28;20033;-76
2022/07/04 02:57:08;;;;;;;0.10;0.10;;;;;;;26.26;53.09;100110.16;4999121;28;20083;-77
2022/07/04 02:59:34;;;;;;;0.10;0.10;;;;;;;26.25;53.18;100112.22;5016696;28;20030;-76
2022/07/04 03:01:59;;;;;;;0.10;0.10;;;;;;;26.31;52.96;100118.09;4998949;28;20497;-75
2022/07/04 03:04:25;;;;;;;0.10;0.10;;;;;;;26.23;52.89;100117.59;4999412;28;20037;-77
2022/07/04 03:06:50;;;;;;;0.10;0.10;;;;;;;26.19;53.33;100124.72;4999272;28;20030;-77
2022/07/04 03:09:16;;;;;;;0.13;0.13;;;;;;;26.21;53.02;100119.38;4999266;28;20037;-77
2022/07/04 03:11:43;;;;;;;0.10;0.10;;;;;;;26.18;53.33;100120.28;4999234;28;20037;-76
2022/07/04 03:14:09;;;;;;;0.10;0.10;;;;;;;26.16;53.40;100120.78;4998780;28;20109;-77
2022/07/04 03:16:34;;;;;;;0.10;0.10;;;;;;;26.15;53.29;100124.06;4998886;28;20050;-77
2022/07/04 03:19:00;;;;;;;0.10;0.10;;;;;;;26.03;53.57;100122.94;4998147;28;20487;-76
2022/07/04 03:21:27;;;;;;;0.10;0.10;;;;;;;25.96;54.02;100128.94;5016201;28;20030;-75
2022/07/04 03:23:59;;;;;;;0.10;0.10;;;;;;;25.92;54.19;100129.09;4999015;28;20034;-77
2022/07/04 03:26:31;;;;;;;0.10;0.10;;;;;;;25.73;54.12;100102.56;4998588;28;20026;-76
2022/07/04 03:28:58;;;;;;;0.10;0.10;;;;;;;25.98;54.20;100138.59;4998658;28;20037;-76
2022/07/04 03:31:24;;;;;;;0.10;0.10;;;;;;;25.85;54.19;100135.88;4999192;28;20053;-77
2022/07/04 03:33:50;;;;;;;0.10;0.10;;;;;;;25.82;54.22;100133.16;5016402;28;20057;-77
2022/07/04 03:36:17;;;;;;;0.20;0.20;;;;;;;25.84;54.05;100148.53;4998344;28;20053;-76
2022/07/04 03:38:43;;;;;;;0.10;0.10;;;;;;;25.76;54.59;100149.28;4998028;28;20034;-76
2022/07/04 03:41:09;;;;;;;0.10;0.10;;;;;;;25.73;54.29;100144.53;4998817;28;20353;-77
2022/07/04 03:43:34;;;;;;;0.10;0.10;;;;;;;25.71;54.86;100141.31;4982065;28;20042;-77
2022/07/04 03:46:00;;;;;;;0.20;0.20;;;;;;;25.63;54.43;100146.53;4998209;28;20536;-77
2022/07/04 03:48:27;;;;;;;0.10;0.10;;;;;;;25.60;55.27;100153.94;4997881;28;20476;-78
2022/07/04 03:50:53;;;;;;;0.20;0.20;;;;;;;25.67;55.17;100152.84;4997886;28;20022;-77
2022/07/04 03:53:19;;;;;;;0.10;0.10;;;;;;;25.70;54.82;100140.53;4998451;28;20044;-77
2022/07/04 03:55:45;;;;;;;0.20;0.20;;;;;;;25.76;55.23;100149.28;4997884;28;20120;-77
2022/07/04 03:58:11;;;;;;;0.10;0.10;;;;;;;25.73;55.00;100144.53;4997696;28;20054;-75
2022/07/04 04:00:36;;;;;;;0.10;0.10;;;;;;;25.73;55.28;100150.22;4997915;28;20054;-77
2022/07/04 04:03:02;;;;;;;0.10;0.10;;;;;;;25.90;54.54;100140.19;4997691;28;20038;-77
2022/07/04 04:05:30;;;;;;;0.10;0.10;;;;;;;26.23;53.98;100148.19;4997637;28;20084;-77
2022/07/04 04:08:00;;;;;;;0.10;0.10;;;;;;;26.57;52.85;100145.09;4997119;28;20384;-77
2022/07/04 04:10:27;;;;;;;0.10;0.10;;;;;;;26.84;52.15;100143.50;4997650;28;20030;-77
2022/07/04 04:12:53;;;;;;;0.10;0.10;;;;;;;27.09;51.41;100157.47;4997508;28;20527;-76
2022/07/04 04:15:19;;;;;;;0.10;0.10;;;;;;;27.35;51.09;100151.41;4997661;28;20029;-77
2022/07/04 04:17:44;;;;;;;0.10;0.10;;;;;;;27.54;50.31;100144.38;4997215;28;20378;-77
2022/07/04 04:20:10;;;;;;;0.10;0.10;;;;;;;27.93;49.63;100162.53;4997671;28;20057;-76
2022/07/04 04:22:36;;;;;;;0.10;0.10;;;;;;;28.20;49.41;100164.44;5015465;28;20030;-77
2022/07/04 04:25:02;;;;;;;0.10;0.10;;;;;;;28.40;48.30;100160.25;4997238;28;20036;-77
2022/07/04 04:27:28;;;;;;;0.10;0.10;;;;;;;28.64;47.63;100172.44;4997142;28;20038;-76
2022/07/04 04:29:53;;;;;;;0.10;0.10;;;;;;;28.74;47.58;100166.66;4997397;28;20065;-77
2022/07/04 04:32:19;;;;;;;0.10;0.10;;;;;;;28.94;47.12;100178.31;4996983;28;20030;-76
2022/07/04 04:34:44;;;;;;;0.10;0.10;;;;;;;29.13;46.48;100176.06;4997103;28;20037;-77
2022/07/04 04:37:10;;;;;;;0.15;0.15;;;;;;;29.39;45.76;100177.06;4997288;28;20026;-76
2022/07/04 04:39:36;;;;;;;0.10;0.10;;;;;;;29.54;45.17;100179.97;4996948;28;20030;-77
2022/07/04 04:42:02;;;;;;;0.10;0.10;;;;;;;29.78;44.55;100177.00;4997092;28;20140;-76
2022/07/04 04:44:27;;;;;;;0.10;0.10;;;;;;;29.88;45.01;100183.38;5014794;28;20036;-77
2022/07/04 04:46:53;;;;;;;0.10;0.10;;;;;;;30.03;44.72;100178.41;4996977;28;20025;-75
2022/07/04 04:49:18;;;;;;;0.10;0.10;;;;;;;29.81;46.26;100183.81;4997126;28;20057;-76
2022/07/04 04:51:44;;;;;;;0.10;0.10;;;;;;;29.54;47.37;100182.84;5014958;28;20401;-76
2022/07/04 04:54:11;;;;;;;0.10;0.10;;;;;;;29.45;47.84;100192.28;4997627;28;20065;-76
2022/07/04 04:56:36;;;;;;;0.10;0.10;;;;;;;29.48;47.83;100191.31;5014237;28;20168;-77
2022/07/04 04:59:02;;;;;;;0.10;0.10;;;;;;;29.95;46.76;100201.00;4996808;28;20116;-76
2022/07/04 05:01:28;;;;;;;0.10;0.10;;;;;;;30.23;45.51;100189.97;4996875;28;20078;-77
2022/07/04 05:03:53;;;;;;;0.10;0.10;;;;;;;30.70;44.33;100172.91;4996508;28;20037;-76
2022/07/04 05:06:19;;;;;;;0.10;0.10;;;;;;;31.17;43.06;100188.88;4980703;28;20030;-77
2022/07/04 05:08:46;;;;;;;0.10;0.10;;;;;;;30.94;43.04;100184.16;4997077;28;20384;-76
2022/07/04 05:11:11;;;;;;;0.10;0.10;;;;;;;30.99;43.40;100192.03;4997199;28;20026;-77
2022/07/04 05:13:37;;;;;;;0.10;0.10;;;;;;;31.30;42.08;100188.50;4996834;28;20393;-76
2022/07/04 05:16:03;;;;;;;0.10;0.10;;;;;;;31.67;41.50;100193.56;4996458;28;20030;-75
2022/07/04 05:18:28;;;;;;;0.10;0.10;;;;;;;32.13;40.69;100196.31;4995844;28;20112;-76
2022/07/04 05:20:54;;;;;;;0.10;0.10;;;;;;;32.02;42.77;100190.47;4996220;28;20108;-75
2022/07/04 05:23:20;;;;;;;0.10;0.10;;;;;;;32.16;42.76;100195.28;4996319;28;20026;-76
2022/07/04 05:25:47;;;;;;;0.10;0.10;;;;;;;32.53;42.15;100180.09;5014349;28;20036;-77
2022/07/04 05:28:13;;;;;;;0.10;0.10;;;;;;;32.72;41.13;100187.00;4996883;28;20106;-76
2022/07/04 05:30:38;;;;;;;0.10;0.10;;;;;;;32.62;41.40;100182.75;4996635;28;20109;-76
2022/07/04 05:33:04;;;;;;;0.10;0.10;;;;;;;31.93;43.00;100190.66;4996795;28;20026;-76
2022/07/04 05:35:31;;;;;;;0.10;0.10;;;;;;;31.91;43.34;100187.53;4996703;28;20476;-76
2022/07/04 05:37:57;;;;;;;0.10;0.10;;;;;;;31.38;44.53;100180.22;4996209;28;20026;-76
2022/07/04 05:40:22;;;;;;;0.10;0.10;;;;;;;31.69;44.20;100177.34;4996233;28;20092;-76
2022/07/04 05:42:48;;;;;;;0.10;0.10;;;;;;;31.79;45.32;100180.84;4996247;28;20034;-77
2022/07/04 05:45:14;;;;;;;0.10;0.10;;;;;;;32.41;43.29;100175.56;4996807;28;20041;-77
2022/07/04 05:47:40;;;;;;;0.10;0.10;;;;;;;32.28;43.25;100176.78;4996320;28;20441;-76
2022/07/04 05:50:06;;;;;;;0.10;0.10;;;;;;;31.72;45.21;100176.34;4996846;28;20034;-77
2022/07/04 05:52:31;;;;;;;0.10;0.10;;;;;;;32.14;44.05;100185.59;4996254;28;20040;-76
2022/07/04 05:54:57;;;;;;;0.10;0.10;;;;;;;31.97;44.92;100180.50;4996840;28;20050;-75
2022/07/04 05:57:22;;;;;;;0.10;0.10;;;;;;;32.10;45.00;100188.69;4996694;28;20353;-77
2022/07/04 05:59:48;;;;;;;0.10;0.10;;;;;;;32.04;44.79;100191.53;4996393;28;20025;-77
2022/07/04 06:02:15;;;;;;;0.10;0.10;;;;;;;32.38;44.41;100182.34;4996125;28;20041;-78
2022/07/04 06:04:40;;;;;;;0.10;0.10;;;;;;;32.74;44.10;100184.38;4995892;28;20121;-76
2022/07/04 06:07:06;;;;;;;0.10;0.10;;;;;;;33.38;42.77;100184.84;4979452;28;20192;-77
2022/07/04 06:09:32;;;;;;;0.10;0.10;;;;;;;33.77;42.50;100192.75;4996208;28;20071;-76
2022/07/04 06:11:58;;;;;;;0.10;0.10;;;;;;;34.13;41.33;100182.28;4995903;28;20033;-76
2022/07/04 06:14:23;;;;;;;0.10;0.10;;;;;;;33.85;42.17;100183.06;4996266;28;20030;-77
2022/07/04 06:16:49;;;;;;;0.10;0.10;;;;;;;33.35;43.35;100180.91;4996191;28;20484;-77
2022/07/04 06:19:15;;;;;;;0.10;0.10;;;;;;;34.54;41.61;100187.47;4995418;28;20496;-75
2022/07/04 06:21:40;;;;;;;0.10;0.10;;;;;;;33.92;42.43;100181.75;4996515;28;20116;-76
2022/07/04 06:24:06;;;;;;;0.10;0.10;;;;;;;33.80;42.46;100185.97;4996622;28;20409;-76
2022/07/04 06:26:31;;;;;;;0.10;0.10;;;;;;;34.29;42.18;100181.47;4995697;28;20385;-77
2022/07/04 06:28:57;;;;;;;0.10;0.10;;;;;;;34.15;42.55;100194.09;4995594;28;20132;-76
2022/07/04 06:31:22;;;;;;;0.10;0.10;;;;;;;35.02;40.35;100187.03;4998240;28;20125;-75
2022/07/04 06:36:32;;;;;;;0.10;0.10;;;;;;;35.24;40.32;100189.00;5017414;28;20413;-75
2022/07/04 06:38:58;;;;;;;0.10;0.10;;;;;;;34.61;41.82;100193.47;4999037;28;20034;-75
2022/07/04 06:41:24;;;;;;;0.10;0.10;;;;;;;33.81;42.23;100185.41;4999193;28;20062;-76
2022/07/04 06:43:49;;;;;;;0.10;0.10;;;;;;;33.59;43.01;100183.31;4999716;28;20034;-77
2022/07/04 06:46:15;;;;;;;0.10;0.10;;;;;;;33.00;44.02;100171.94;4999223;28;20516;-75
2022/07/04 06:48:41;;;;;;;0.10;0.10;;;;;;;33.55;43.08;100177.03;4998914;28;20034;-76
2022/07/04 06:51:06;;;;;;;0.13;0.13;;;;;;;34.03;41.69;100180.97;4999032;28;20063;-75
2022/07/04 06:53:32;;;;;;;0.10;0.10;;;;;;;33.98;41.60;100176.78;4999376;28;20079;-75
2022/07/04 06:55:57;;;;;;;0.10;0.10;;;;;;;34.00;42.05;100171.28;4998853;28;20109;-76
2022/07/04 06:58:23;;;;;;;0.10;0.10;;;;;;;34.53;39.94;100183.78;4998662;28;20026;-75
2022/07/04 07:00:48;;;;;;;0.10;0.10;;;;;;;34.45;40.47;100181.97;4998858;28;20029;-76
2022/07/04 07:03:14;;;;;;;0.10;0.10;;;;;;;34.89;38.96;100176.03;5016375;28;20322;-75
2022/07/04 07:05:39;;;;;;;0.10;0.10;;;;;;;34.95;39.22;100184.72;4998580;28;20088;-75
2022/07/04 07:08:05;;;;;;;0.10;0.10;;;;;;;34.35;41.07;100179.34;4998600;28;20026;-76
2022/07/04 07:10:35;;;;;;;0.10;0.10;;;;;;;33.76;42.02;100168.13;4999228;28;20030;-76
2022/07/04 07:13:03;;;;;;;0.10;0.10;;;;;;;34.24;40.45;100173.59;4999073;28;20387;-77
2022/07/04 07:15:29;;;;;;;0.10;0.10;;;;;;;34.19;40.51;100177.28;4998549;28;20056;-77
2022/07/04 07:17:55;;;;;;;0.10;0.10;;;;;;;35.26;38.86;100177.66;4998252;28;20116;-76
2022/07/04 07:20:20;;;;;;;0.10;0.10;;;;;;;35.85;37.34;100167.53;5015855;28;20077;-75
2022/07/04 07:22:46;;;;;;;0.10;0.10;;;;;;;35.02;38.07;100174.69;4998300;28;20022;-75
2022/07/04 07:25:12;;;;;;;0.10;0.10;;;;;;;34.71;38.00;100164.28;4998314;28;20061;-75
2022/07/04 07:27:39;;;;;;;0.10;0.10;;;;;;;35.36;37.14;100163.69;4998124;28;20028;-75
2022/07/04 07:30:05;;;;;;;0.10;0.10;;;;;;;36.28;35.24;100169.78;4997337;28;20038;-76
2022/07/04 07:32:31;;;;;;;0.10;0.10;;;;;;;36.92;34.05;100164.28;5014175;28;20034;-77
2022/07/04 07:34:57;;;;;;;0.10;0.10;;;;;;;36.49;34.24;100160.59;4998159;28;20061;-78
2022/07/04 07:37:23;;;;;;;0.10;0.10;;;;;;;36.25;34.73;100159.25;4997738;28;20453;-78
2022/07/04 07:39:49;;;;;;;0.10;0.10;;;;;;;35.63;35.63;100153.25;4998008;28;20029;-78
2022/07/04 07:42:16;;;;;;;0.10;0.10;;;;;;;36.08;34.41;100155.75;4997766;28;20030;-75
2022/07/04 07:44:41;;;;;;;0.10;0.10;;;;;;;35.26;36.28;100150.84;4998195;28;20050;-75
2022/07/04 07:47:07;;;;;;;0.10;0.10;;;;;;;34.87;37.47;100149.75;4997843;28;20481;-77
2022/07/04 07:49:33;;;;;;;0.10;0.10;;;;;;;36.00;35.40;100148.97;4997693;28;20095;-77
2022/07/04 07:51:58;;;;;;;0.10;0.10;;;;;;;35.94;35.11;100149.03;4982193;28;20037;-76
2022/07/04 07:54:24;;;;;;;0.10;0.10;;;;;;;35.81;35.05;100141.00;4998072;28;20361;-78
2022/07/04 07:56:50;;;;;;;0.10;0.10;;;;;;;35.25;36.12;100141.41;4997993;28;20465;-77
2022/07/04 07:59:16;;;;;;;0.10;0.10;;;;;;;35.78;34.19;100127.59;4997526;28;20030;-77
2022/07/04 08:01:41;;;;;;;0.10;0.10;;;;;;;36.00;34.08;100143.19;4997518;28;20472;-77
2022/07/04 08:06:51;;;;;;;0.10;0.10;;;;;;;36.95;32.37;100140.00;5015333;28;20049;-77
2022/07/04 08:09:16;;;;;;;0.10;0.10;;;;;;;36.37;33.16;100148.31;4997256;28;20026;-76
2022/07/04 08:11:42;;;;;;;0.10;0.10;;;;;;;36.06;33.80;100146.81;5014998;28;20018;-74
2022/07/04 08:14:08;;;;;;;0.10;0.10;;;;;;;36.59;32.49;100135.69;4997567;28;20111;-75
2022/07/04 08:16:34;;;;;;;0.10;0.10;;;;;;;36.33;33.58;100137.06;4997180;28;20492;-76
2022/07/04 08:19:01;;;;;;;0.10;0.10;;;;;;;36.94;32.52;100132.63;4996884;28;20026;-77
2022/07/04 08:21:27;;;;;;;0.10;0.10;;;;;;;36.01;33.49;100133.19;4997123;28;20484;-76
2022/07/04 08:23:53;;;;;;;0.10;0.10;;;;;;;36.77;32.55;100137.84;4996856;28;20100;-77
2022/07/04 08:26:18;;;;;;;0.13;0.13;;;;;;;36.70;31.90;100139.25;4997197;28;20030;-77
2022/07/04 08:28:45;;;;;;;0.10;0.10;;;;;;;36.94;31.64;100140.53;4997102;28;20368;-77
2022/07/04 08:31:11;;;;;;;0.10;0.10;;;;;;;36.74;31.37;100138.94;4997064;28;20022;-75
2022/07/04 08:33:36;;;;;;;0.10;0.10;;;;;;;36.30;31.56;100143.94;4997222;28;20034;-76
2022/07/04 08:36:03;;;;;;;0.10;0.10;;;;;;;36.30;31.99;100140.25;4997087;28;20361;-77
2022/07/04 08:38:29;;;;;;;0.10;0.10;;;;;;;36.62;31.23;100140.41;4996851;28;20030;-76
2022/07/04 08:40:57;;;;;;;0.10;0.10;;;;;;;37.34;30.54;100141.53;4997299;28;20362;-77
2022/07/04 08:43:25;;;;;;;0.10;0.10;;;;;;;37.86;29.69;100140.16;5014317;28;20084;-78
2022/07/04 08:45:53;;;;;;;0.10;0.10;;;;;;;37.85;28.47;100143.63;4996852;28;20018;-75
2022/07/04 08:48:24;;;;;;;0.10;0.10;;;;;;;37.34;29.08;100149.44;5014694;28;20164;-75
2022/07/04 08:50:55;;;;;;;0.10;0.10;;;;;;;37.53;28.64;100135.72;4996651;28;20034;-77
2022/07/04 08:53:22;;;;;;;0.10;0.10;;;;;;;38.14;27.92;100135.94;4996223;28;20037;-77
2022/07/04 08:58:33;;;;;;;0.10;0.10;;;;;;;38.87;28.20;100138.19;5014384;28;20041;-78
2022/07/04 09:01:07;;;;;;;0.10;0.10;;;;;;;38.75;27.72;100139.78;4996596;28;20026;-78
2022/07/04 09:03:34;;;;;;;0.10;0.10;;;;;;;38.57;27.96;100131.94;4996772;28;20049;-75
2022/07/04 09:06:00;;;;;;;0.10;0.10;;;;;;;38.50;28.14;100134.19;4996937;28;20041;-75
2022/07/04 09:08:27;;;;;;;0.10;0.10;;;;;;;38.10;28.91;100135.53;5014220;28;20030;-77
2022/07/04 09:10:53;;;;;;;0.10;0.10;;;;;;;37.50;29.33;100119.38;4997009;28;20044;-75
2022/07/04 09:13:20;;;;;;;0.10;0.10;;;;;;;37.16;30.28;100131.50;5014141;28;20033;-77
2022/07/04 09:15:50;;;;;;;0.10;0.10;;;;;;;36.67;31.28;100127.97;4996697;28;20026;-78
2022/07/04 09:18:30;;;;;;;0.10;0.10;;;;;;;38.09;29.76;100134.75;5013963;28;20125;-77
2022/07/04 09:21:04;;;;;;;0.10;0.10;;;;;;;39.26;28.43;100139.47;4996406;28;20041;-77
2022/07/04 09:23:42;;;;;;;0.10;0.10;;;;;;;39.68;27.64;100133.66;4996452;28;20120;-75
2022/07/04 09:26:15;;;;;;;0.10;0.10;;;;;;;40.39;26.73;100138.13;5014006;28;20161;-75
2022/07/04 09:28:54;;;;;;;0.10;0.10;;;;;;;40.32;27.06;100139.63;4996470;28;20087;-78
2022/07/04 09:31:22;;;;;;;0.10;0.10;;;;;;;39.81;28.11;100139.41;4996853;28;20030;-76
2022/07/04 09:33:53;;;;;;;0.10;0.10;;;;;;;40.03;27.30;100117.63;4996659;28;20030;-77
2022/07/04 09:36:22;;;;;;;0.10;0.10;;;;;;;40.82;26.50;100134.47;4996565;28;20465;-78
2022/07/04 09:39:18;;;;;;;0.10;0.10;;;;;;;41.35;26.09;100133.91;4996374;28;20026;-77
2022/07/04 09:41:55;;;;;;;0.10;0.10;;;;;;;40.39;27.01;100114.78;4996849;28;20136;-77
2022/07/04 09:44:22;;;;;;;0.10;0.10;;;;;;;39.14;28.72;100132.28;4996025;28;20499;-77
2022/07/04 09:46:48;;;;;;;0.10;0.10;;;;;;;38.15;31.20;100131.72;4995958;28;20117;-77
2022/07/04 09:49:13;;;;;;;0.10;0.10;;;;;;;39.13;31.18;100139.47;4995996;28;20057;-77
2022/07/04 09:51:44;;;;;;;0.10;0.10;;;;;;;38.67;32.92;100135.97;4995957;28;20037;-75
2022/07/04 09:54:15;;;;;;;0.10;0.10;;;;;;;38.34;33.59;100132.41;4996087;28;20116;-76
2022/07/04 09:56:46;;;;;;;0.10;0.10;;;;;;;38.47;32.81;100132.44;4996296;28;20493;-78
2022/07/04 09:59:12;;;;;;;0.10;0.10;;;;;;;38.43;33.63;100125.38;5013918;28;20123;-77
2022/07/04 10:01:39;;;;;;;0.10;0.10;;;;;;;37.95;34.90;100121.53;4996524;28;20457;-79
2022/07/04 10:04:05;;;;;;;0.10;0.10;;;;;;;38.11;34.71;100125.47;4995999;28;20029;-76
2022/07/04 10:06:32;;;;;;;0.10;0.10;;;;;;;37.88;34.48;100122.22;4999126;28;20038;-77
2022/07/04 10:09:12;;;;;;;0.10;0.10;;;;;;;38.61;33.25;100115.72;5017756;28;20060;-76
2022/07/04 10:11:41;;;;;;;0.10;0.10;;;;;;;37.80;34.04;100118.34;4999355;28;20045;-78
2022/07/04 10:14:08;;;;;;;0.10;0.10;;;;;;;37.17;34.00;100091.69;4999818;28;20092;-76
2022/07/04 10:16:35;;;;;;;0.10;0.10;;;;;;;37.29;34.04;100110.50;4999795;28;20025;-77
2022/07/04 10:19:00;;;;;;;0.10;0.10;;;;;;;37.36;33.75;100106.97;4999272;28;20034;-77
2022/07/04 10:21:27;;;;;;;0.10;0.10;;;;;;;37.44;33.54;100116.56;4999671;28;20037;-77
2022/07/04 10:23:53;;;;;;;0.10;0.10;;;;;;;37.82;33.38;100109.88;4999260;28;20041;-76
2022/07/04 10:26:19;;;;;;;0.10;0.10;;;;;;;38.04;32.88;100115.31;4983972;28;20040;-77
2022/07/04 10:28:47;;;;;;;0.10;0.10;;;;;;;37.60;33.97;100111.03;4999609;28;20066;-78
2022/07/04 10:31:13;;;;;;;0.10;0.10;;;;;;;38.03;33.11;100112.94;5000040;28;20026;-78
2022/07/04 10:33:40;;;;;;;0.10;0.10;;;;;;;37.12;34.54;100118.66;4999819;28;20026;-78
2022/07/04 10:36:20;;;;;;;0.10;0.10;;;;;;;37.72;32.82;100109.53;4999043;28;20037;-78
2022/07/04 10:38:58;;;;;;;0.10;0.10;;;;;;;37.94;31.77;100105.47;4998926;28;20032;-77
2022/07/04 10:41:25;;;;;;;0.10;0.10;;;;;;;37.59;32.99;100098.66;5016811;28;20022;-76
2022/07/04 10:44:02;;;;;;;0.10;0.10;;;;;;;38.39;31.19;100101.69;4999779;28;20480;-77
2022/07/04 10:46:43;;;;;;;0.10;0.10;;;;;;;37.32;32.43;100094.88;4999420;28;20029;-76
2022/07/04 10:49:15;;;;;;;0.10;0.10;;;;;;;37.55;31.64;100094.50;5016961;28;20485;-77
2022/07/04 10:51:46;;;;;;;0.10;0.10;;;;;;;37.81;32.21;100085.84;4999266;28;20033;-77
2022/07/04 10:54:17;;;;;;;0.10;0.10;;;;;;;37.30;32.69;100094.66;4999376;28;20504;-76
2022/07/04 10:56:50;;;;;;;0.10;0.10;;;;;;;37.35;32.84;100099.56;4999251;28;20127;-75
2022/07/04 10:59:27;;;;;;;0.10;0.10;;;;;;;37.79;32.59;100091.44;4998797;28;20155;-77
2022/07/04 11:02:01;;;;;;;0.10;0.10;;;;;;;38.36;31.67;100094.09;5016549;28;20038;-77
2022/07/04 11:04:54;;;;;;;0.10;0.10;;;;;;;37.60;34.20;100088.59;4999123;28;20026;-77
2022/07/04 11:07:39;;;;;;;0.10;0.10;;;;;;;37.94;33.97;100093.84;4998672;28;20034;-76
2022/07/04 11:10:11;;;;;;;0.10;0.10;;;;;;;37.00;35.26;100082.47;4999004;28;20030;-76
2022/07/04 11:12:55;;;;;;;0.10;0.10;;;;;;;36.97;33.83;100061.94;4998385;28;20030;-76
2022/07/04 11:15:32;;;;;;;0.10;0.10;;;;;;;37.48;34.51;100082.22;4998805;28;20108;-76
2022/07/04 11:18:14;;;;;;;0.10;0.10;;;;;;;37.57;35.01;100077.34;4999162;28;20381;-76
2022/07/04 11:20:48;;;;;;;0.10;0.10;;;;;;;37.82;34.25;100081.66;4995155;28;20057;-77
2022/07/04 11:23:19;;;;;;;0.10;0.10;;;;;;;37.43;35.10;100079.41;4996634;28;20425;-75
2022/07/04 11:25:47;;;;;;;0.10;0.10;;;;;;;37.41;35.42;100082.88;4996480;28;20030;-77
2022/07/04 11:28:36;;;;;;;0.10;0.10;;;;;;;37.27;35.42;100084.13;4994651;28;20038;-78
2022/07/04 11:31:02;;;;;;;0.10;0.10;;;;;;;37.16;36.65;100073.50;4996088;28;20029;-76
2022/07/04 11:33:30;;;;;;;0.10;0.10;;;;;;;37.40;36.94;100069.72;4995292;28;20030;-77
2022/07/04 11:36:03;;;;;;;0.10;0.10;;;;;;;37.18;36.86;100067.13;4995998;28;20054;-78